createdAt,value
2019-02-16T00:00:15.588Z,7.13
2019-02-16T00:02:42.716Z,7.53
2019-02-16T00:05:09.887Z,7.73
2019-02-16T00:07:36.998Z,6.90
2019-02-16T00:10:04.413Z,7.17
2019-02-16T00:12:31.552Z,6.77
2019-02-16T00:14:58.641Z,7.40
2019-02-16T00:17:25.790Z,7.23
2019-02-16T00:19:52.884Z,6.93
2019-02-16T00:22:19.990Z,8.07
2019-02-16T00:24:47.112Z,7.10
2019-02-16T00:27:14.219Z,7.37
2019-02-16T00:29:41.344Z,6.93
2019-02-16T00:32:08.466Z,7.13
2019-02-16T00:34:35.586Z,7.53
2019-02-16T00:37:02.714Z,7.27
2019-02-16T00:39:29.824Z,7.43
2019-02-16T00:41:56.944Z,7.40
2019-02-16T00:44:24.029Z,6.67
2019-02-16T00:46:51.114Z,6.83
2019-02-16T00:49:18.228Z,6.80
2019-02-16T00:51:45.348Z,7.40
2019-02-16T00:54:12.445Z,6.83
2019-02-16T00:56:39.562Z,6.37
2019-02-16T00:59:06.665Z,6.40
2019-02-16T01:01:33.784Z,6.60
2019-02-16T01:04:00.920Z,6.67
2019-02-16T01:06:28.022Z,7.13
2019-02-16T01:08:55.097Z,7.10
2019-02-16T01:11:22.201Z,6.13
2019-02-16T01:13:49.348Z,6.87
2019-02-16T01:16:16.424Z,6.50
2019-02-16T01:18:43.530Z,7.27
2019-02-16T01:21:10.604Z,7.60
2019-02-16T01:23:37.696Z,7.07
2019-02-16T01:26:04.801Z,6.50
2019-02-16T01:28:31.920Z,6.87
2019-02-16T01:30:59.017Z,6.63
2019-02-16T01:33:26.144Z,7.07
2019-02-16T01:35:53.264Z,6.73
2019-02-16T01:38:20.383Z,6.63
2019-02-16T01:40:47.486Z,7.07
2019-02-16T01:43:14.572Z,7.63
2019-02-16T01:45:41.653Z,7.07
2019-02-16T01:48:08.729Z,7.17
2019-02-16T01:50:35.818Z,6.60
2019-02-16T01:53:02.922Z,7.10
2019-02-16T01:55:30.076Z,7.00
2019-02-16T01:57:57.436Z,7.90
2019-02-16T02:00:24.539Z,7.53
2019-02-16T02:02:51.632Z,7.63
2019-02-16T02:05:18.738Z,7.43
2019-02-16T02:07:45.849Z,7.60
2019-02-16T02:10:12.937Z,6.87
2019-02-16T02:12:40.029Z,7.07
2019-02-16T02:15:07.717Z,7.20
2019-02-16T02:17:34.833Z,6.57
2019-02-16T02:20:01.937Z,7.03
2019-02-16T02:22:29.081Z,7.17
2019-02-16T02:24:56.172Z,7.10
2019-02-16T02:27:23.282Z,6.67
2019-02-16T02:29:50.585Z,6.83
2019-02-16T02:32:17.502Z,7.57
2019-02-16T02:34:44.595Z,7.70
2019-02-16T02:37:11.686Z,7.23
2019-02-16T02:39:38.764Z,6.97
2019-02-16T02:42:05.864Z,8.03
2019-02-16T02:44:32.997Z,7.30
2019-02-16T02:47:00.099Z,6.80
2019-02-16T02:49:27.194Z,7.37
2019-02-16T02:51:54.291Z,7.83
2019-02-16T02:54:21.422Z,7.80
2019-02-16T02:56:48.537Z,6.93
2019-02-16T02:59:15.626Z,7.10
2019-02-16T03:01:42.720Z,6.97
2019-02-16T03:04:09.797Z,7.30
2019-02-16T03:06:36.898Z,6.93
2019-02-16T03:09:04.865Z,6.73
2019-02-16T03:11:31.953Z,6.83
2019-02-16T03:13:59.088Z,7.17
2019-02-16T03:16:26.301Z,7.00
2019-02-16T03:18:53.305Z,6.57
2019-02-16T03:21:20.401Z,7.13
2019-02-16T03:23:47.513Z,6.97
2019-02-16T03:26:41.590Z,6.83
2019-02-16T03:33:25.169Z,6.30
2019-02-16T03:36:12.941Z,6.40
2019-02-16T03:38:55.513Z,6.50
2019-02-16T03:41:22.609Z,6.20
2019-02-16T03:43:49.685Z,6.97
2019-02-16T03:46:16.761Z,6.73
2019-02-16T03:48:43.847Z,6.43
2019-02-16T03:51:10.921Z,6.57
2019-02-16T03:53:37.999Z,6.43
2019-02-16T03:56:05.100Z,6.20
2019-02-16T03:58:32.174Z,5.77
2019-02-16T04:00:59.257Z,6.10
2019-02-16T04:03:26.365Z,6.07
2019-02-16T04:05:53.467Z,6.80
2019-02-16T04:08:20.684Z,6.27
2019-02-16T04:10:47.685Z,6.53
2019-02-16T04:13:14.770Z,6.87
2019-02-16T04:15:41.869Z,6.23
2019-02-16T04:18:08.990Z,6.10
2019-02-16T04:20:36.068Z,6.43
2019-02-16T04:23:03.141Z,6.33
2019-02-16T04:25:30.229Z,6.13
2019-02-16T04:27:57.331Z,6.27
2019-02-16T04:30:24.405Z,6.30
2019-02-16T04:32:51.505Z,6.20
2019-02-16T04:35:18.605Z,6.37
2019-02-16T04:37:45.680Z,6.10
2019-02-16T04:40:12.745Z,6.27
2019-02-16T04:42:39.833Z,6.73
2019-02-16T04:45:06.940Z,6.00
2019-02-16T04:47:34.029Z,6.17
2019-02-16T04:50:01.100Z,6.80
2019-02-16T04:52:34.752Z,6.07
2019-02-16T04:54:55.323Z,5.93
2019-02-16T04:57:22.411Z,6.17
2019-02-16T04:59:49.500Z,6.07
2019-02-16T05:02:16.620Z,5.30
2019-02-16T05:04:43.694Z,5.80
2019-02-16T05:07:10.820Z,5.70
2019-02-16T05:09:37.889Z,5.67
2019-02-16T05:12:04.996Z,6.07
2019-02-16T05:14:32.071Z,6.10
2019-02-16T05:16:59.173Z,6.10
2019-02-16T05:19:26.272Z,5.80
2019-02-16T05:21:53.364Z,5.80
2019-02-16T05:24:20.480Z,6.07
2019-02-16T05:26:47.566Z,5.33
2019-02-16T05:29:14.655Z,6.13
2019-02-16T05:31:41.749Z,6.03
2019-02-16T05:34:08.820Z,5.90
2019-02-16T05:36:35.948Z,6.30
2019-02-16T05:39:03.783Z,5.60
2019-02-16T05:41:30.919Z,4.97
2019-02-16T05:43:58.020Z,5.93
2019-02-16T05:46:25.111Z,5.90
2019-02-16T05:48:52.197Z,5.47
2019-02-16T05:51:19.275Z,5.77
2019-02-16T05:53:46.345Z,6.23
2019-02-16T05:56:13.433Z,5.77
2019-02-16T05:58:40.566Z,6.40
2019-02-16T06:01:07.679Z,5.90
2019-02-16T06:03:34.783Z,5.23
2019-02-16T06:06:01.873Z,5.47
2019-02-16T06:08:28.956Z,6.00
2019-02-16T06:10:56.066Z,5.40
2019-02-16T06:13:23.178Z,5.10
2019-02-16T06:15:50.258Z,5.87
2019-02-16T06:18:17.346Z,5.43
2019-02-16T06:20:44.425Z,5.77
2019-02-16T06:23:11.536Z,5.23
2019-02-16T06:25:38.621Z,5.70
2019-02-16T06:28:05.689Z,5.40
2019-02-16T06:30:32.824Z,5.40
2019-02-16T06:32:59.924Z,5.57
2019-02-16T06:35:33.042Z,5.47
2019-02-16T06:38:00.234Z,5.13
2019-02-16T06:40:27.290Z,6.13
2019-02-16T06:42:54.374Z,5.73
2019-02-16T06:45:21.468Z,5.57
2019-02-16T06:47:48.586Z,5.40
2019-02-16T06:50:15.692Z,5.87
2019-02-16T06:52:42.804Z,5.40
2019-02-16T06:55:09.905Z,5.60
2019-02-16T06:57:37.288Z,5.63
2019-02-16T07:00:04.690Z,5.40
2019-02-16T07:02:31.815Z,5.80
2019-02-16T07:04:58.914Z,5.60
2019-02-16T07:07:26.021Z,5.90
2019-02-16T07:09:53.119Z,5.17
2019-02-16T07:12:20.197Z,5.40
2019-02-16T07:14:47.341Z,5.27
2019-02-16T07:17:20.252Z,5.30
2019-02-16T07:19:52.855Z,5.70
2019-02-16T07:22:19.922Z,5.50
2019-02-16T07:24:47.019Z,5.80
2019-02-16T07:27:14.178Z,5.27
2019-02-16T07:29:41.277Z,5.03
2019-02-16T07:32:08.362Z,5.77
2019-02-16T07:34:35.449Z,5.73
2019-02-16T07:37:02.581Z,5.80
2019-02-16T07:39:29.711Z,5.57
2019-02-16T07:41:57.382Z,5.03
2019-02-16T07:44:32.448Z,4.93
2019-02-16T07:47:04.216Z,4.87
2019-02-16T07:49:37.942Z,5.53
2019-02-16T07:52:09.681Z,5.03
2019-02-16T07:54:42.357Z,5.50
2019-02-16T07:59:16.347Z,5.33
2019-02-16T08:01:49.248Z,5.97
2019-02-16T08:04:22.929Z,5.53
2019-02-16T08:06:55.775Z,5.47
2019-02-16T08:09:30.473Z,5.43
2019-02-16T08:12:04.046Z,5.23
2019-02-16T08:14:37.645Z,5.60
2019-02-16T08:19:14.404Z,5.17
2019-02-16T08:21:48.097Z,5.50
2019-02-16T08:26:25.929Z,5.50
2019-02-16T08:29:03.638Z,5.50
2019-02-16T08:31:35.373Z,5.00
2019-02-16T08:34:08.321Z,5.30
2019-02-16T08:36:40.943Z,4.97
2019-02-16T08:39:13.716Z,4.87
2019-02-16T08:41:46.346Z,4.93
2019-02-16T08:44:18.097Z,4.83
2019-02-16T08:46:54.719Z,5.33
2019-02-16T08:49:26.447Z,5.70
2019-02-16T08:51:58.195Z,5.07
2019-02-16T08:54:33.877Z,6.00
2019-02-16T08:57:05.633Z,5.13
2019-02-16T08:59:37.349Z,5.20
2019-02-16T09:02:17.868Z,5.17
2019-02-16T09:04:52.518Z,5.20
2019-02-16T09:07:25.358Z,5.23
2019-02-16T09:10:02.037Z,5.33
2019-02-16T09:12:34.748Z,5.77
2019-02-16T09:15:06.569Z,5.10
2019-02-16T09:19:42.292Z,5.00
2019-02-16T09:22:17.833Z,5.20
2019-02-16T09:24:55.733Z,4.73
2019-02-16T09:27:28.552Z,5.03
2019-02-16T09:30:04.258Z,4.70
2019-02-16T09:32:36.757Z,5.30
2019-02-16T09:35:10.060Z,5.20
2019-02-16T09:37:45.758Z,5.63
2019-02-16T09:40:18.315Z,4.63
2019-02-16T09:42:50.085Z,4.80
2019-02-16T09:45:29.609Z,4.50
2019-02-16T09:48:04.318Z,4.47
2019-02-16T09:50:36.848Z,4.77
2019-02-16T09:53:15.458Z,4.70
2019-02-16T09:55:47.195Z,3.93
2019-02-16T09:58:19.900Z,4.70
2019-02-16T10:00:51.641Z,4.33
2019-02-16T10:03:25.144Z,5.27
2019-02-16T10:06:00.828Z,4.50
2019-02-16T10:08:32.541Z,4.10
2019-02-16T10:11:05.254Z,4.90
2019-02-16T10:15:39.276Z,4.40
2019-02-16T10:20:18.120Z,3.83
2019-02-16T10:22:58.764Z,4.20
2019-02-16T10:25:30.493Z,4.20
2019-02-16T10:28:04.069Z,3.90
2019-02-16T10:30:35.814Z,4.30
2019-02-16T10:33:11.338Z,4.10
2019-02-16T10:35:43.889Z,3.73
2019-02-16T10:40:18.621Z,3.77
2019-02-16T10:42:51.497Z,3.77
2019-02-16T10:45:24.264Z,3.80
2019-02-16T10:47:55.998Z,3.90
2019-02-16T10:50:29.490Z,3.13
2019-02-16T10:53:01.253Z,3.30
2019-02-16T10:55:38.877Z,3.93
2019-02-16T10:58:10.642Z,3.83
2019-02-16T11:00:47.221Z,3.57
2019-02-16T11:03:19.774Z,3.77
2019-02-16T11:05:54.428Z,3.43
2019-02-16T11:08:28.082Z,3.53
2019-02-16T11:11:00.834Z,3.43
2019-02-16T11:13:33.705Z,3.73
2019-02-16T11:16:15.397Z,3.90
2019-02-16T11:18:48.232Z,3.70
2019-02-16T11:21:38.927Z,3.17
2019-02-16T11:24:11.560Z,3.50
2019-02-16T11:26:44.474Z,3.30
2019-02-16T11:29:17.178Z,2.90
2019-02-16T11:31:51.879Z,3.57
2019-02-16T11:34:32.720Z,3.47
2019-02-16T11:37:06.243Z,2.90
2019-02-16T11:39:39.204Z,3.50
2019-02-16T11:42:13.882Z,2.90
2019-02-16T11:44:45.638Z,3.50
2019-02-16T11:47:19.329Z,3.27
2019-02-16T11:49:52.232Z,3.23
2019-02-16T11:52:26.990Z,2.90
2019-02-16T11:55:00.606Z,3.10
2019-02-16T11:57:33.574Z,2.97
2019-02-16T12:00:06.478Z,2.90
2019-02-16T12:02:42.161Z,3.30
2019-02-16T12:05:13.933Z,3.10
2019-02-16T12:07:45.655Z,3.10
2019-02-16T12:10:18.325Z,2.90
2019-02-16T12:12:51.001Z,2.80
2019-02-16T12:15:25.549Z,2.93
2019-02-16T12:17:58.277Z,3.13
2019-02-16T12:20:33.632Z,2.87
2019-02-16T12:24:05.761Z,2.67
2019-02-16T12:26:45.385Z,2.67
2019-02-16T12:29:17.127Z,2.73
2019-02-16T12:31:50.026Z,2.60
2019-02-16T12:34:28.671Z,2.40
2019-02-16T12:37:00.396Z,2.63
2019-02-16T12:39:32.924Z,2.30
2019-02-16T12:42:10.457Z,2.43
2019-02-16T12:44:43.036Z,3.07
2019-02-16T12:47:17.625Z,2.70
2019-02-16T12:49:50.585Z,2.40
2019-02-16T12:52:23.270Z,2.47
2019-02-16T12:54:57.753Z,2.87
2019-02-16T12:57:31.423Z,2.83
2019-02-16T13:00:05.047Z,2.40
2019-02-16T13:02:40.708Z,2.40
2019-02-16T13:05:13.334Z,2.23
2019-02-16T13:07:50.057Z,2.47
2019-02-16T13:10:25.753Z,2.67
2019-02-16T13:13:03.478Z,2.40
2019-02-16T13:15:36.029Z,2.60
2019-02-16T13:18:11.696Z,1.90
2019-02-16T13:20:48.363Z,2.40
2019-02-16T13:23:23.941Z,2.70
2019-02-16T13:25:58.469Z,2.43
2019-02-16T13:28:33.042Z,2.37
2019-02-16T13:31:05.688Z,1.90
2019-02-16T13:33:38.192Z,2.13
2019-02-16T13:36:11.079Z,2.37
2019-02-16T13:38:42.812Z,2.60
2019-02-16T13:42:18.488Z,2.40
2019-02-16T13:44:51.045Z,2.53
2019-02-16T13:47:22.857Z,2.40
2019-02-16T13:50:03.569Z,2.30
2019-02-16T13:52:35.317Z,2.60
2019-02-16T13:55:07.090Z,2.20
2019-02-16T13:57:40.747Z,2.40
2019-02-16T14:00:13.655Z,2.30
2019-02-16T14:02:45.382Z,2.13
2019-02-16T14:05:18.074Z,2.30
2019-02-16T14:07:58.680Z,2.73
2019-02-16T14:10:31.549Z,2.00
2019-02-16T14:13:04.412Z,2.00
2019-02-16T14:15:38.109Z,1.90
2019-02-16T14:18:05.257Z,2.20
2019-02-16T14:20:32.353Z,2.30
2019-02-16T14:22:59.461Z,2.23
2019-02-16T14:25:31.237Z,1.90
2019-02-16T14:27:58.370Z,2.13
2019-02-16T14:30:25.477Z,2.17
2019-02-16T14:32:52.593Z,2.20
2019-02-16T14:35:19.720Z,2.30
2019-02-16T14:37:55.257Z,2.07
2019-02-16T14:40:23.853Z,2.17
2019-02-16T14:42:50.972Z,2.03
2019-02-16T14:45:18.067Z,2.13
2019-02-16T14:47:45.177Z,2.23
2019-02-16T14:50:12.307Z,2.27
2019-02-16T14:52:39.396Z,2.27
2019-02-16T14:55:08.659Z,1.77
2019-02-16T14:57:35.755Z,1.97
2019-02-16T15:00:02.985Z,1.90
2019-02-16T15:02:30.129Z,2.10
2019-02-16T15:04:57.220Z,2.20
2019-02-16T15:07:24.310Z,2.20
2019-02-16T15:09:51.416Z,2.00
2019-02-16T15:12:18.539Z,1.57
2019-02-16T15:14:45.659Z,2.10
2019-02-16T15:17:12.772Z,2.03
2019-02-16T15:19:39.872Z,2.27
2019-02-16T15:22:06.991Z,1.70
2019-02-16T15:24:34.121Z,2.03
2019-02-16T15:27:01.241Z,2.20
2019-02-16T15:29:28.933Z,2.17
2019-02-16T15:31:56.036Z,2.27
2019-02-16T15:34:23.149Z,2.17
2019-02-16T15:36:50.216Z,1.80
2019-02-16T15:39:17.340Z,1.90
2019-02-16T15:41:44.453Z,2.07
2019-02-16T15:44:11.561Z,2.43
2019-02-16T15:46:38.669Z,1.97
2019-02-16T15:49:05.786Z,2.00
2019-02-16T15:51:32.907Z,1.87
2019-02-16T15:54:00.016Z,1.90
2019-02-16T15:56:27.120Z,2.20
2019-02-16T15:58:54.257Z,1.70
2019-02-16T16:01:21.415Z,2.00
2019-02-16T16:03:48.523Z,1.83
2019-02-16T16:06:15.641Z,1.87
2019-02-16T16:09:50.981Z,1.97
2019-02-16T16:12:25.553Z,1.80
2019-02-16T16:14:58.077Z,1.73
2019-02-16T16:17:31.697Z,2.13
2019-02-16T16:20:04.276Z,1.90
2019-02-16T16:22:39.910Z,1.73
2019-02-16T16:25:14.626Z,2.20
2019-02-16T16:27:49.201Z,1.90
2019-02-16T16:30:21.877Z,2.20
2019-02-16T16:32:56.598Z,1.60
2019-02-16T16:35:28.323Z,1.87
2019-02-16T16:38:02.036Z,1.77
2019-02-16T16:40:34.562Z,1.80
2019-02-16T16:43:06.285Z,1.87
2019-02-16T16:45:39.402Z,1.70
2019-02-16T16:50:19.014Z,1.53
2019-02-16T16:52:50.009Z,2.10
2019-02-16T16:55:26.675Z,2.30
2019-02-16T16:57:58.394Z,1.80
2019-02-16T17:00:30.940Z,1.83
2019-02-16T17:03:06.484Z,2.30
2019-02-16T17:05:44.155Z,2.17
2019-02-16T17:08:16.807Z,1.90
2019-02-16T17:10:50.399Z,2.57
2019-02-16T17:13:23.299Z,2.63
2019-02-16T17:15:55.033Z,2.20
2019-02-16T17:18:26.753Z,2.13
2019-02-16T17:21:01.338Z,2.20
2019-02-16T17:23:38.821Z,1.97
2019-02-16T17:26:11.566Z,2.30
2019-02-16T17:28:44.233Z,2.67
2019-02-16T17:31:18.909Z,2.20
2019-02-16T17:33:52.462Z,2.27
2019-02-16T17:36:29.233Z,2.70
2019-02-16T17:39:03.813Z,2.53
2019-02-16T17:43:39.650Z,2.23
2019-02-16T17:46:42.393Z,2.00
2019-02-16T17:50:17.110Z,2.40
2019-02-16T17:52:48.869Z,2.40
2019-02-16T17:55:21.552Z,2.47
2019-02-16T17:57:56.080Z,2.70
2019-02-16T18:00:30.812Z,2.47
2019-02-16T18:03:03.486Z,2.53
2019-02-16T18:05:39.169Z,3.07
2019-02-16T18:08:10.901Z,2.77
2019-02-16T18:10:42.650Z,2.47
2019-02-16T18:13:15.593Z,2.57
2019-02-16T18:15:49.262Z,3.00
2019-02-16T18:18:21.025Z,3.40
2019-02-16T18:21:51.756Z,3.00
2019-02-16T18:24:24.617Z,2.97
2019-02-16T18:26:58.781Z,2.80
2019-02-16T18:29:46.296Z,2.80
2019-02-16T18:32:19.240Z,3.53
2019-02-16T18:34:55.972Z,3.07
2019-02-16T18:37:28.660Z,3.20
2019-02-16T18:40:01.487Z,3.10
2019-02-16T18:42:35.116Z,3.23
2019-02-16T18:45:06.876Z,3.67
2019-02-16T18:47:40.429Z,3.10
2019-02-16T18:50:19.122Z,3.30
2019-02-16T18:52:56.717Z,3.67
2019-02-16T18:55:32.404Z,3.57
2019-02-16T18:58:04.125Z,3.37
2019-02-16T19:00:40.683Z,3.67
2019-02-16T19:03:20.425Z,3.80
2019-02-16T19:05:55.097Z,4.10
2019-02-16T19:08:31.694Z,4.20
2019-02-16T19:11:04.456Z,4.33
2019-02-16T19:13:37.385Z,3.90
2019-02-16T19:16:10.267Z,3.53
2019-02-16T19:18:43.893Z,4.10
2019-02-16T19:21:15.646Z,3.87
2019-02-16T19:23:49.266Z,4.30
2019-02-16T19:26:26.785Z,4.60
2019-02-16T19:29:04.348Z,5.10
2019-02-16T19:31:36.907Z,4.57
2019-02-16T19:34:08.674Z,4.50
2019-02-16T19:37:43.338Z,4.83
2019-02-16T19:40:16.241Z,4.80
2019-02-16T19:43:19.941Z,4.97
2019-02-16T19:45:56.624Z,5.47
2019-02-16T19:48:30.781Z,4.60
2019-02-16T19:51:07.427Z,5.43
2019-02-16T19:53:43.211Z,5.03
2019-02-16T19:56:14.976Z,5.00
2019-02-16T19:58:47.568Z,5.83
2019-02-16T20:01:19.320Z,6.20
2019-02-16T20:03:52.925Z,5.60
2019-02-16T20:06:25.374Z,5.70
2019-02-16T20:09:00.008Z,6.17
2019-02-16T20:11:33.566Z,6.33
2019-02-16T20:14:06.241Z,6.20
2019-02-16T20:16:42.874Z,6.50
2019-02-16T20:21:16.680Z,6.20
2019-02-16T20:23:51.394Z,6.40
2019-02-16T20:28:26.196Z,6.87
2019-02-16T20:30:59.816Z,5.93
2019-02-16T20:33:33.520Z,6.63
2019-02-16T20:36:10.095Z,7.00
2019-02-16T20:38:44.645Z,6.60
2019-02-16T20:41:24.337Z,6.80
2019-02-16T20:43:59.052Z,7.40
2019-02-16T20:46:35.780Z,7.83
2019-02-16T20:49:11.333Z,7.43
2019-02-16T20:51:45.101Z,7.57
2019-02-16T20:54:20.809Z,6.23
2019-02-16T20:56:53.511Z,7.57
2019-02-16T20:59:26.025Z,7.30
2019-02-16T21:02:02.699Z,7.03
2019-02-16T21:04:38.384Z,7.97
2019-02-16T21:07:13.022Z,7.07
2019-02-16T21:09:45.737Z,7.47
2019-02-16T21:12:21.465Z,7.27
2019-02-16T21:14:55.259Z,7.27
2019-02-16T21:17:30.933Z,7.83
2019-02-16T21:20:02.681Z,7.53
2019-02-16T21:22:35.369Z,7.47
2019-02-16T21:27:09.321Z,7.80
2019-02-16T21:29:42.181Z,7.27
2019-02-16T21:32:13.933Z,7.40
2019-02-16T21:34:46.669Z,7.37
2019-02-16T21:37:19.428Z,7.53
2019-02-16T21:39:51.914Z,7.00
2019-02-16T21:42:23.665Z,7.23
2019-02-16T21:47:02.792Z,7.87
2019-02-16T21:49:36.071Z,8.20
2019-02-16T21:52:08.955Z,8.17
2019-02-16T21:54:43.646Z,8.23
2019-02-16T21:57:21.129Z,7.70
2019-02-16T21:59:59.697Z,8.20
2019-02-16T22:02:41.387Z,8.30
2019-02-16T22:05:15.026Z,8.23
2019-02-16T22:07:50.790Z,9.27
2019-02-16T22:10:23.760Z,9.90
2019-02-16T22:12:55.492Z,9.30
2019-02-16T22:15:22.608Z,9.47
2019-02-16T22:17:49.733Z,9.60
2019-02-16T22:20:16.829Z,9.37
2019-02-16T22:22:43.937Z,9.03
2019-02-16T22:25:11.039Z,9.20
2019-02-16T22:27:38.137Z,9.10
2019-02-16T22:30:05.948Z,9.47
2019-02-16T22:32:33.078Z,9.27
2019-02-16T22:35:00.309Z,9.03
2019-02-16T22:37:27.312Z,9.30
2019-02-16T22:39:54.389Z,8.80
2019-02-16T22:42:21.629Z,8.77
2019-02-16T22:44:48.727Z,9.40
2019-02-16T22:47:15.826Z,9.40
2019-02-16T22:49:42.917Z,9.20
2019-02-16T22:52:10.013Z,8.70
2019-02-16T22:54:37.124Z,9.63
2019-02-16T22:57:04.225Z,9.80
2019-02-16T22:59:31.309Z,9.20
2019-02-16T23:01:58.409Z,9.67
2019-02-16T23:04:25.513Z,9.27
2019-02-16T23:06:52.628Z,9.33
2019-02-16T23:09:25.129Z,9.03
2019-02-16T23:11:52.224Z,10.40
2019-02-16T23:14:19.302Z,9.23
2019-02-16T23:16:46.410Z,9.83
2019-02-16T23:19:13.505Z,9.70
2019-02-16T23:21:40.610Z,9.77
2019-02-16T23:24:07.693Z,10.40
2019-02-16T23:26:34.781Z,9.47
2019-02-16T23:29:01.882Z,10.27
2019-02-16T23:31:28.963Z,10.13
2019-02-16T23:33:56.064Z,10.07
2019-02-16T23:36:23.185Z,10.53
2019-02-16T23:38:50.267Z,10.30
2019-02-16T23:41:17.352Z,9.43
2019-02-16T23:43:44.466Z,10.23
2019-02-16T23:46:11.559Z,10.30
2019-02-16T23:48:38.645Z,9.97
2019-02-16T23:51:05.749Z,9.57
2019-02-16T23:53:32.866Z,9.87
2019-02-16T23:55:59.973Z,10.23
2019-02-16T23:58:27.069Z,10.10
